Time;durP1;ratioP1;P1;durP2;ratioP2;P2;SDS_P1;SDS_P2;PMS_P1;PMS_P2;Temp;Humidity;BMP_temperature;BMP_pressure;BME280_temperature;BME280_humidity;BME280_pressure;Samples;Min_cycle;Max_cycle;Signal;HPM_P1;HPM_P2
2022/05/07 00:09:35;;;;;;;8.75;4.75;;;;;;;9.71;100.00;101031.28;21017767;28;20045;-67
2022/05/07 00:19:37;;;;;;;8.82;4.90;;;;;;;9.73;100.00;101029.56;21022312;28;20408;-67
2022/05/07 00:29:39;;;;;;;8.05;5.03;;;;;;;9.65;100.00;101026.09;21022776;28;20055;-67
2022/05/07 00:39:41;;;;;;;6.95;4.25;;;;;;;9.48;100.00;101024.34;21021353;28;20397;-67
2022/05/07 00:49:44;;;;;;;8.23;4.50;;;;;;;9.35;100.00;101020.03;21029785;28;20048;-67
2022/05/07 00:59:46;;;;;;;8.90;4.97;;;;;;;9.11;100.00;101010.47;21036778;28;20048;-67
2022/05/07 01:09:48;;;;;;;8.15;5.00;;;;;;;8.96;100.00;101011.34;21034949;28;20052;-69
2022/05/07 01:19:53;;;;;;;7.38;4.65;;;;;;;8.91;100.00;101020.00;21030763;28;20048;-69
2022/05/07 01:29:55;;;;;;;6.93;4.15;;;;;;;8.88;100.00;101013.06;21033474;28;20052;-69
2022/05/07 01:39:58;;;;;;;7.10;4.47;;;;;;;8.78;100.00;101013.91;21031680;28;20151;-69
2022/05/07 01:50:00;;;;;;;9.77;5.18;;;;;;;8.76;100.00;101014.78;21030973;28;20044;-69
2022/05/07 02:00:03;;;;;;;7.47;4.47;;;;;;;8.58;100.00;101011.28;21029762;28;20048;-69
2022/05/07 02:10:05;;;;;;;15.15;5.88;;;;;;;8.51;100.00;101025.16;21030694;28;20709;-69
2022/05/07 02:20:07;;;;;;;8.50;4.50;;;;;;;8.50;100.00;101028.66;21030324;28;20496;-69
2022/05/07 02:30:09;;;;;;;7.28;3.97;;;;;;;8.14;100.00;101034.56;21029017;28;20063;-69
2022/05/07 02:40:11;;;;;;;8.60;4.80;;;;;;;7.96;100.00;101035.38;21028587;28;20405;-68
2022/05/07 02:50:12;;;;;;;11.55;5.13;;;;;;;7.97;100.00;101032.75;21027425;28;20046;-68
2022/05/07 03:00:15;;;;;;;11.25;5.60;;;;;;;7.91;100.00;101026.66;21025514;28;20062;-69
2022/05/07 03:10:16;;;;;;;10.95;5.40;;;;;;;7.89;100.00;101023.13;21023385;28;20044;-68
2022/05/07 03:20:18;;;;;;;11.98;5.63;;;;;;;7.74;100.00;101018.72;21024770;28;20048;-68
2022/05/07 03:30:19;;;;;;;10.38;5.25;;;;;;;7.49;100.00;101020.31;21023863;28;20094;-69
2022/05/07 03:40:21;;;;;;;10.07;5.25;;;;;;;7.39;100.00;101032.41;21024054;28;20048;-69
2022/05/07 03:50:23;;;;;;;10.00;5.60;;;;;;;7.30;100.00;101021.91;21023850;28;20043;-68
2022/05/07 04:00:24;;;;;;;10.10;5.78;;;;;;;7.32;100.00;101034.94;21023630;28;20489;-69
2022/05/07 04:10:26;;;;;;;14.43;6.80;;;;;;;7.45;100.00;101037.63;21024041;28;20412;-68
2022/05/07 04:20:27;;;;;;;12.55;6.90;;;;;;;7.57;100.00;101033.38;21025724;28;20060;-69
2022/05/07 04:30:29;;;;;;;13.60;6.43;;;;;;;7.61;100.00;101048.16;21037398;28;20040;-69
2022/05/07 04:40:30;;;;;;;11.05;6.10;;;;;;;8.20;100.00;101039.81;21036038;28;20052;-69
2022/05/07 04:50:32;;;;;;;10.45;5.90;;;;;;;8.34;100.00;101038.13;21036430;28;20052;-68
2022/05/07 05:00:33;;;;;;;11.23;6.22;;;;;;;8.52;100.00;101042.56;21035229;28;20051;-69
2022/05/07 05:10:34;;;;;;;9.45;5.65;;;;;;;8.75;100.00;101050.44;21035304;28;20165;-69
2022/05/07 05:20:36;;;;;;;11.52;5.82;;;;;;;9.16;100.00;101057.50;21035352;28;20055;-69
2022/05/07 05:30:37;;;;;;;11.15;6.40;;;;;;;9.49;100.00;101054.88;21033007;28;20044;-69
2022/05/07 05:40:41;;;;;;;14.45;8.63;;;;;;;9.85;100.00;101053.06;21033657;28;20493;-69
2022/05/07 05:50:42;;;;;;;13.45;9.18;;;;;;;10.24;100.00;101061.69;21028326;28;20054;-69
2022/05/07 06:00:44;;;;;;;17.60;9.85;;;;;;;10.51;100.00;101063.34;21030618;28;20480;-69
2022/05/07 06:10:46;;;;;;;13.82;9.13;;;;;;;10.81;100.00;101070.16;21030224;28;20049;-67
2022/05/07 06:20:49;;;;;;;16.38;9.65;;;;;;;11.10;100.00;101075.19;21028853;28;20048;-69
2022/05/07 06:30:51;;;;;;;18.63;11.05;;;;;;;11.50;100.00;101070.53;21028403;28;20613;-69
2022/05/07 06:40:52;;;;;;;17.20;11.07;;;;;;;11.87;97.64;101080.69;21028634;28;20048;-69
2022/05/07 06:50:55;;;;;;;19.00;11.77;;;;;;;12.20;96.44;101073.34;21028097;28;20048;-69
2022/05/07 07:00:58;;;;;;;15.82;9.43;;;;;;;12.55;100.00;101055.41;21026242;28;20093;-67
2022/05/07 07:11:00;;;;;;;13.93;8.40;;;;;;;12.87;99.54;101072.47;21007098;28;20052;-67
2022/05/07 07:21:01;;;;;;;9.70;6.22;;;;;;;13.22;94.80;101074.59;21018919;28;20056;-67
2022/05/07 07:31:03;;;;;;;12.52;6.43;;;;;;;13.72;88.03;101072.00;21015316;28;20044;-67
2022/05/07 07:41:05;;;;;;;8.55;5.38;;;;;;;13.86;86.07;101062.97;21016430;28;20075;-68
2022/05/07 07:51:07;;;;;;;8.13;5.20;;;;;;;14.35;84.63;101058.50;21016813;28;20097;-68
2022/05/07 08:01:09;;;;;;;9.65;5.43;;;;;;;14.63;79.73;101067.56;21027990;28;20419;-69
2022/05/07 08:21:30;;;;;;;8.00;4.07;;;;;;;15.20;77.16;101055.72;21030416;28;20056;-68
2022/05/07 08:31:32;;;;;;;7.70;4.28;;;;;;;15.64;71.95;101054.63;21030112;28;20044;-68
2022/05/07 08:41:35;;;;;;;9.10;4.50;;;;;;;15.82;75.31;101047.16;21028770;28;20059;-68
2022/05/07 08:51:36;;;;;;;6.50;3.70;;;;;;;16.23;73.80;101037.19;21028668;28;20468;-68
2022/05/07 09:01:38;;;;;;;7.68;4.60;;;;;;;16.81;67.89;101035.47;21026471;28;20059;-68
2022/05/07 09:11:43;;;;;;;8.00;4.55;;;;;;;17.06;64.13;101031.13;21025392;28;20354;-68
2022/05/07 09:21:45;;;;;;;7.57;4.10;;;;;;;17.41;59.87;101023.81;21023687;28;20052;-68
2022/05/07 09:31:48;;;;;;;7.43;3.90;;;;;;;17.94;60.44;101016.66;21025568;28;20074;-68
2022/05/07 09:41:53;;;;;;;11.98;4.05;;;;;;;18.09;55.99;101003.75;21024272;28;20068;-68
2022/05/07 09:51:57;;;;;;;6.20;3.38;;;;;;;18.50;53.51;101003.97;21023947;28;20460;-68
2022/05/07 10:02:11;;;;;;;8.32;3.22;;;;;;;18.72;52.08;101002.22;21022093;28;20048;-68
2022/05/07 10:12:19;;;;;;;6.37;3.40;;;;;;;18.98;51.38;100995.03;21022644;28;20500;-69
2022/05/07 10:22:24;;;;;;;5.00;2.50;;;;;;;19.38;48.95;100978.28;21021116;28;20056;-69
2022/05/07 10:32:25;;;;;;;8.10;2.40;;;;;;;19.76;47.56;100973.97;21020115;28;20044;-69
2022/05/07 10:42:37;;;;;;;5.38;1.90;;;;;;;19.98;42.63;100968.56;21020485;28;20052;-69
2022/05/07 10:52:39;;;;;;;7.80;1.90;;;;;;;19.85;41.25;100962.06;21019160;28;20095;-69
2022/05/07 11:02:41;;;;;;;7.97;2.10;;;;;;;20.16;41.10;100954.38;21017391;28;20546;-69
2022/05/07 11:12:42;;;;;;;4.57;2.25;;;;;;;20.31;41.90;100943.97;21012969;28;20069;-68
2022/05/07 11:22:44;;;;;;;4.43;2.30;;;;;;;20.73;41.00;100931.28;21017774;28;20462;-69
2022/05/07 11:32:45;;;;;;;5.00;2.33;;;;;;;21.27;42.41;100931.22;21016764;28;20059;-69
2022/05/07 11:42:49;;;;;;;6.35;2.13;;;;;;;20.68;41.15;100921.81;21017511;28;20062;-68
2022/05/07 11:53:11;;;;;;;6.30;2.38;;;;;;;20.54;41.42;100925.13;21017093;28;20081;-68
2022/05/07 12:03:24;;;;;;;6.47;2.53;;;;;;;20.68;43.62;100917.34;21016321;28;20428;-69
2022/05/07 12:13:26;;;;;;;5.13;2.63;;;;;;;20.34;42.36;100911.91;21016479;28;20044;-69
2022/05/07 12:33:48;;;;;;;4.47;2.00;;;;;;;21.09;42.23;100889.59;21010685;28;20048;-69
2022/05/07 12:43:49;;;;;;;4.55;2.15;;;;;;;21.29;40.07;100878.75;21019614;28;20098;-68
2022/05/07 12:53:52;;;;;;;6.47;2.45;;;;;;;21.51;39.59;100870.50;21028408;28;20049;-69
2022/05/07 13:03:54;;;;;;;8.27;2.33;;;;;;;21.30;42.85;100874.28;21027312;28;20106;-69
2022/05/07 13:13:56;;;;;;;4.97;2.22;;;;;;;21.37;41.84;100862.41;21029868;28;20052;-68
2022/05/07 13:23:58;;;;;;;6.88;2.40;;;;;;;21.37;39.51;100843.75;21026297;28;20126;-68
2022/05/07 13:34:00;;;;;;;6.55;2.40;;;;;;;21.35;41.03;100838.50;21024897;28;20110;-69
2022/05/07 13:44:02;;;;;;;3.60;2.03;;;;;;;21.51;38.28;100817.19;21024447;28;20048;-68
2022/05/07 13:54:04;;;;;;;6.30;2.53;;;;;;;21.64;40.38;100820.94;21023042;28;20045;-68
2022/05/07 14:04:05;;;;;;;4.47;2.25;;;;;;;21.82;39.70;100805.72;21022925;28;20846;-69
2022/05/07 14:14:08;;;;;;;3.97;2.10;;;;;;;21.48;41.08;100796.06;21021675;28;20067;-69
2022/05/07 14:24:09;;;;;;;5.13;2.15;;;;;;;21.82;37.88;100787.06;21021355;28;20098;-69
2022/05/07 14:34:11;;;;;;;7.57;2.38;;;;;;;21.80;36.92;100783.63;21019610;28;20048;-69
2022/05/07 14:44:13;;;;;;;3.58;1.98;;;;;;;22.17;36.22;100766.41;21019738;28;20045;-68
2022/05/07 14:54:15;;;;;;;4.22;2.20;;;;;;;22.44;35.62;100763.09;21019917;28;20106;-69
2022/05/07 15:04:16;;;;;;;6.72;2.30;;;;;;;21.89;36.32;100760.91;21017149;28;20081;-68
2022/05/07 15:14:18;;;;;;;5.20;1.98;;;;;;;21.91;35.78;100743.03;21018388;28;20410;-68
2022/05/07 15:24:19;;;;;;;4.82;2.20;;;;;;;21.94;36.85;100734.84;21018130;28;20052;-69
2022/05/07 15:44:42;;;;;;;5.75;1.80;;;;;;;21.88;37.00;100732.53;21015091;28;20044;-68
2022/05/07 15:54:44;;;;;;;5.43;2.00;;;;;;;22.18;34.84;100728.13;21017290;28;20044;-69
2022/05/07 16:04:45;;;;;;;6.30;2.00;;;;;;;22.05;34.95;100724.44;21011156;28;20052;-68
2022/05/07 16:14:46;;;;;;;3.70;1.90;;;;;;;22.33;34.75;100726.38;21015470;28;20052;-68
2022/05/07 16:25:00;;;;;;;6.05;1.70;;;;;;;21.99;34.29;100716.75;21031245;28;20044;-68
2022/05/07 16:35:02;;;;;;;4.53;1.70;;;;;;;21.95;35.41;100709.91;21029315;28;20082;-68
2022/05/07 16:45:04;;;;;;;3.58;1.60;;;;;;;21.61;36.68;100711.00;21029694;28;20045;-68
2022/05/07 16:55:07;;;;;;;4.43;1.73;;;;;;;21.80;35.59;100703.66;21029277;28;20115;-69
2022/05/07 17:05:08;;;;;;;4.65;1.48;;;;;;;21.68;35.93;100707.88;21028379;28;20473;-69
2022/05/07 17:15:10;;;;;;;10.63;5.55;;;;;;;21.74;35.62;100699.53;21028314;28;20102;-69
2022/05/07 17:25:11;;;;;;;11.25;6.70;;;;;;;21.34;36.16;100708.94;21027480;28;20063;-68
2022/05/07 17:35:13;;;;;;;5.93;2.70;;;;;;;21.49;36.14;100712.53;21024805;28;20169;-68
2022/05/07 17:45:14;;;;;;;7.75;1.80;;;;;;;21.33;38.29;100717.00;21024602;28;20044;-68
2022/05/07 17:55:16;;;;;;;4.07;1.52;;;;;;;20.93;39.76;100730.63;21024056;28;20048;-69
2022/05/07 18:05:17;;;;;;;3.75;1.50;;;;;;;20.37;40.79;100736.25;21023007;28;20044;-69
2022/05/07 18:15:19;;;;;;;3.40;1.42;;;;;;;20.01;42.06;100745.13;21021786;28;20048;-69
2022/05/07 18:25:21;;;;;;;5.80;2.10;;;;;;;19.78;44.39;100737.41;21022153;28;20095;-68
2022/05/07 18:35:22;;;;;;;5.45;2.60;;;;;;;19.36;50.42;100757.09;21020291;28;20060;-69
2022/05/07 18:45:24;;;;;;;7.88;3.30;;;;;;;18.77;53.21;100757.97;21019371;28;20124;-68
2022/05/07 19:05:47;;;;;;;8.50;3.78;;;;;;;17.78;57.44;100781.53;21018070;28;20053;-68
2022/05/07 19:38:34;;;;;;;7.82;3.00;;;;;;;16.51;64.51;100800.19;21008901;28;20052;-68
2022/05/07 19:48:36;;;;;;;7.63;2.55;;;;;;;16.30;64.91;100807.06;21016906;28;20048;-68
2022/05/07 19:58:38;;;;;;;4.30;2.40;;;;;;;15.93;65.67;100817.94;21042804;28;20055;-68
2022/05/07 20:08:39;;;;;;;4.28;2.00;;;;;;;15.50;67.44;100816.56;21043798;28;20101;-68
2022/05/07 20:18:41;;;;;;;4.55;1.80;;;;;;;15.20;69.84;100833.28;21043849;28;20486;-68
2022/05/07 20:28:43;;;;;;;4.15;2.15;;;;;;;14.92;73.64;100841.94;21038582;28;20048;-68
2022/05/07 20:38:44;;;;;;;5.07;2.15;;;;;;;14.76;74.87;100851.16;21041180;28;20570;-68
2022/05/07 20:48:46;;;;;;;5.85;2.83;;;;;;;14.56;75.16;100844.63;21041199;28;20040;-68
2022/05/07 20:58:52;;;;;;;5.22;2.55;;;;;;;14.22;78.43;100854.19;21041045;28;20101;-68
2022/05/07 21:09:00;;;;;;;5.65;3.15;;;;;;;13.95;79.68;100851.31;21029181;28;20052;-68
2022/05/07 21:19:02;;;;;;;5.03;2.70;;;;;;;13.83;79.36;100870.00;21030692;28;20059;-68
2022/05/07 21:29:06;;;;;;;5.45;2.80;;;;;;;13.88;79.94;100862.88;21021507;28;20389;-68
2022/05/07 21:39:09;;;;;;;8.63;3.40;;;;;;;14.35;76.10;100866.19;21023995;28;20516;-68
2022/05/07 21:49:11;;;;;;;6.95;3.53;;;;;;;14.70;74.15;100877.66;21024704;28;20132;-68
2022/05/07 21:59:12;;;;;;;8.10;3.50;;;;;;;14.92;73.11;100875.34;21023846;28;20052;-68
2022/05/07 22:09:15;;;;;;;5.72;2.95;;;;;;;14.83;75.13;100879.09;21029381;28;20674;-68
2022/05/07 22:19:17;;;;;;;6.95;3.20;;;;;;;14.85;75.19;100872.00;21025472;28;20059;-68
2022/05/07 22:29:18;;;;;;;7.70;3.50;;;;;;;14.74;76.20;100893.34;21028985;28;20610;-68
2022/05/07 22:39:20;;;;;;;9.27;3.53;;;;;;;14.46;79.05;100898.41;21026900;28;20060;-68
2022/05/07 22:49:21;;;;;;;8.95;4.45;;;;;;;14.43;79.34;100893.22;21027512;28;20459;-68
2022/05/07 22:59:23;;;;;;;6.90;4.05;;;;;;;14.29;80.02;100900.59;21027394;28;20515;-68
2022/05/07 23:09:25;;;;;;;7.22;4.32;;;;;;;14.40;79.77;100906.44;21025167;28;20130;-68
2022/05/07 23:19:26;;;;;;;9.02;5.10;;;;;;;14.42;79.96;100904.66;21026256;28;20477;-67
2022/05/07 23:29:35;;;;;;;8.13;4.75;;;;;;;14.48;80.11;100903.69;21025053;28;20067;-68
2022/05/07 23:39:37;;;;;;;8.80;5.07;;;;;;;14.44;80.41;100902.00;21025150;28;20056;-68
2022/05/07 23:49:39;;;;;;;9.00;5.15;;;;;;;14.30;81.68;100912.84;21024409;28;20051;-68
2022/05/07 23:59:40;;;;;;;9.85;5.78;;;;;;;14.16;83.28;100907.03;21023947;28;20082;-68
